Time;durP1;ratioP1;P1;durP2;ratioP2;P2;SDS_P1;SDS_P2;PMS_P1;PMS_P2;Temp;Humidity;BMP_temperature;BMP_pressure;BME280_temperature;BME280_humidity;BME280_pressure;Samples;Min_cycle;Max_cycle;Signal;HPM_P1;HPM_P2
2023/06/24 00:01:33;;;;;;;11.30;9.07;;;;;;;24.48;83.02;99793.59;4994799;28;20042;-68
2023/06/24 00:03:59;;;;;;;10.90;9.32;;;;;;;24.40;84.20;99799.44;4993927;28;20037;-67
2023/06/24 00:06:25;;;;;;;10.43;9.00;;;;;;;24.43;84.08;99800.81;4994595;28;20038;-67
2023/06/24 00:08:52;;;;;;;10.70;8.60;;;;;;;24.46;83.75;99801.13;4994819;28;20518;-66
2023/06/24 00:11:18;;;;;;;10.35;8.77;;;;;;;24.45;83.72;99802.22;4994547;28;20408;-67
2023/06/24 00:13:44;;;;;;;10.82;8.82;;;;;;;24.37;83.46;99785.59;4993809;28;20409;-67
2023/06/24 00:16:10;;;;;;;12.77;8.82;;;;;;;24.39;83.22;99796.97;4994397;28;20447;-67
2023/06/24 00:18:37;;;;;;;11.63;8.88;;;;;;;24.24;84.68;99799.47;4994607;28;20448;-67
2023/06/24 00:21:04;;;;;;;12.65;9.25;;;;;;;24.33;84.19;99789.88;4995716;28;20205;-67
2023/06/24 00:23:34;;;;;;;12.30;8.85;;;;;;;24.36;84.10;99790.19;4996294;28;20098;-67
2023/06/24 00:26:00;;;;;;;9.70;8.70;;;;;;;24.45;83.40;99790.56;4994531;28;20037;-65
2023/06/24 00:28:25;;;;;;;11.52;9.30;;;;;;;24.41;82.49;99784.84;4995234;28;20236;-68
2023/06/24 00:30:51;;;;;;;13.93;10.32;;;;;;;24.23;83.81;99787.81;4995978;28;20038;-66
2023/06/24 00:33:19;;;;;;;14.70;10.77;;;;;;;24.11;84.67;99784.41;4994981;28;20034;-65
2023/06/24 00:35:45;;;;;;;14.63;10.30;;;;;;;23.84;85.81;99781.56;4990662;28;20083;-67
2023/06/24 00:38:10;;;;;;;14.63;10.98;;;;;;;23.68;85.56;99790.50;4994066;28;20114;-65
2023/06/24 00:40:37;;;;;;;14.48;10.23;;;;;;;23.40;85.15;99783.25;4993967;28;20049;-67
2023/06/24 00:43:04;;;;;;;15.25;10.75;;;;;;;22.92;86.99;99788.09;4993885;28;20080;-67
2023/06/24 00:45:32;;;;;;;17.60;12.00;;;;;;;22.81;88.12;99785.41;4994353;28;20031;-65
2023/06/24 00:48:02;;;;;;;17.48;11.77;;;;;;;22.39;89.40;99784.81;4995163;28;20030;-67
2023/06/24 00:50:28;;;;;;;12.32;9.65;;;;;;;22.07;90.77;99779.00;4997933;28;20026;-65
2023/06/24 00:52:53;;;;;;;15.18;9.55;;;;;;;22.14;89.72;99783.22;4997055;28;20038;-67
2023/06/24 00:55:22;;;;;;;12.35;9.55;;;;;;;22.01;88.97;99771.81;4998064;28;20038;-65
2023/06/24 00:57:51;;;;;;;13.63;8.95;;;;;;;21.94;89.66;99772.75;4998189;28;20037;-65
2023/06/24 01:00:23;;;;;;;12.40;8.38;;;;;;;21.81;88.88;99774.84;4998028;28;20201;-67
2023/06/24 01:02:51;;;;;;;9.48;7.45;;;;;;;21.84;88.71;99774.38;4997442;28;20030;-66
2023/06/24 01:05:17;;;;;;;9.60;7.15;;;;;;;21.94;88.61;99766.53;4997344;28;20363;-65
2023/06/24 01:07:43;;;;;;;12.55;7.53;;;;;;;21.82;86.35;99768.41;4997609;28;20023;-65
2023/06/24 01:10:11;;;;;;;9.60;7.50;;;;;;;21.84;87.47;99775.19;4997482;28;20044;-66
2023/06/24 01:12:39;;;;;;;9.55;7.45;;;;;;;21.84;86.57;99775.19;4997340;28;20379;-65
2023/06/24 01:15:07;;;;;;;9.25;7.50;;;;;;;21.91;86.23;99775.94;4997777;28;20129;-65
2023/06/24 01:17:46;;;;;;;8.63;7.50;;;;;;;22.15;84.87;99787.53;4997231;28;20352;-67
2023/06/24 01:20:21;;;;;;;9.23;6.70;;;;;;;22.29;84.04;99780.03;4997199;28;20026;-65
2023/06/24 01:23:20;;;;;;;9.35;7.35;;;;;;;22.20;83.55;99776.88;4994532;28;20267;-67
2023/06/24 01:26:20;;;;;;;10.80;6.65;;;;;;;22.46;82.94;99780.91;4994058;28;20232;-67
2023/06/24 01:29:09;;;;;;;10.75;7.00;;;;;;;22.74;81.87;99774.72;4997677;28;20048;-67
2023/06/24 01:31:43;;;;;;;8.90;7.53;;;;;;;22.98;81.27;99769.28;4998550;28;20114;-66
2023/06/24 01:34:27;;;;;;;9.98;6.70;;;;;;;23.16;80.90;99769.88;4997905;28;20093;-65
2023/06/24 01:37:13;;;;;;;;;;;;;;;23.10;80.06;99775.44;4999280;28;20045;-67
2023/06/24 01:39:47;;;;;;;9.52;7.82;;;;;;;23.10;80.02;99772.75;4997720;28;19972;-66
2023/06/24 01:42:15;;;;;;;12.63;7.97;;;;;;;22.99;80.87;99768.22;4993083;28;20042;-65
2023/06/24 01:44:43;;;;;;;9.95;7.20;;;;;;;23.10;80.20;99781.66;4996897;28;20236;-65
2023/06/24 01:47:10;;;;;;;11.65;7.72;;;;;;;23.07;80.52;99778.63;4996498;28;20357;-67
2023/06/24 01:49:40;;;;;;;11.82;8.60;;;;;;;23.00;81.41;99775.25;4997082;28;20042;-65
2023/06/24 01:52:08;;;;;;;10.23;8.35;;;;;;;22.95;80.78;99769.78;4996856;28;20396;-65
2023/06/24 01:54:36;;;;;;;12.18;8.35;;;;;;;22.98;80.76;99775.50;4996600;28;20123;-67
2023/06/24 01:57:03;;;;;;;11.77;8.95;;;;;;;22.92;79.70;99771.88;4996647;28;20356;-66
2023/06/24 01:59:29;;;;;;;13.10;8.13;;;;;;;22.84;79.41;99783.06;4992449;28;20784;-67
2023/06/24 02:01:55;;;;;;;12.30;7.95;;;;;;;22.81;78.81;99780.00;4996840;28;20093;-65
2023/06/24 02:04:23;;;;;;;10.00;7.70;;;;;;;22.79;77.60;99791.03;4996875;28;20042;-67
2023/06/24 02:06:51;;;;;;;9.77;7.55;;;;;;;22.88;77.01;99792.31;4996569;28;20049;-67
2023/06/24 02:09:19;;;;;;;9.35;7.22;;;;;;;23.04;76.16;99803.41;4996920;28;20038;-65
2023/06/24 02:11:45;;;;;;;10.73;7.22;;;;;;;23.14;75.61;99795.50;4998062;28;20042;-65
2023/06/24 02:14:13;;;;;;;9.20;7.55;;;;;;;23.22;75.31;99801.34;4996318;28;20101;-66
2023/06/24 02:16:40;;;;;;;9.80;7.95;;;;;;;23.30;74.21;99800.13;4995537;28;20054;-66
2023/06/24 02:19:07;;;;;;;11.43;8.15;;;;;;;23.37;73.29;99799.97;4996590;28;20037;-65
2023/06/24 02:21:35;;;;;;;8.88;7.90;;;;;;;23.44;72.92;99806.84;4996662;28;20042;-66
2023/06/24 02:24:01;;;;;;;9.40;6.35;;;;;;;23.46;73.10;99803.91;4996842;28;20068;-67
2023/06/24 02:26:27;;;;;;;9.35;6.95;;;;;;;23.43;72.96;99807.91;4996856;28;20038;-67
2023/06/24 02:28:54;;;;;;;8.70;7.07;;;;;;;23.22;73.38;99812.13;4997092;28;20034;-67
2023/06/24 02:31:20;;;;;;;9.45;7.00;;;;;;;23.00;74.06;99816.59;4995324;28;20137;-66
2023/06/24 02:33:45;;;;;;;9.05;7.10;;;;;;;22.92;75.67;99828.59;4996676;28;20213;-66
2023/06/24 02:36:11;;;;;;;10.07;7.63;;;;;;;22.83;76.52;99830.00;4995959;28;20035;-66
2023/06/24 02:38:37;;;;;;;9.52;7.53;;;;;;;22.84;76.76;99837.03;4996215;28;20284;-66
2023/06/24 02:41:04;;;;;;;8.88;7.63;;;;;;;22.84;76.86;99828.94;4996914;28;20030;-67
2023/06/24 02:43:30;;;;;;;11.98;7.63;;;;;;;22.89;77.07;99847.16;4996839;28;20034;-67
2023/06/24 02:45:57;;;;;;;9.40;7.07;;;;;;;22.90;76.44;99849.63;4995253;28;20038;-68
2023/06/24 02:48:24;;;;;;;10.40;7.68;;;;;;;22.96;75.71;99844.31;4995404;28;20100;-65
2023/06/24 02:50:50;;;;;;;9.70;7.80;;;;;;;22.99;75.94;99844.66;4998541;28;20034;-66
2023/06/24 02:53:19;;;;;;;9.30;7.80;;;;;;;22.99;75.12;99850.06;4996944;28;20037;-67
2023/06/24 02:55:45;;;;;;;10.82;7.97;;;;;;;23.03;75.17;99850.38;4991434;28;20113;-67
2023/06/24 02:58:12;;;;;;;10.48;7.38;;;;;;;23.09;74.88;99842.16;4997905;28;20038;-67
2023/06/24 03:00:37;;;;;;;11.05;7.97;;;;;;;23.11;74.23;99845.44;4995251;28;20053;-67
2023/06/24 03:03:04;;;;;;;10.57;8.18;;;;;;;23.14;74.04;99853.03;4996884;28;20038;-65
2023/06/24 03:05:32;;;;;;;11.15;9.13;;;;;;;23.08;73.85;99858.59;4996925;28;20050;-66
2023/06/24 03:07:58;;;;;;;10.88;8.73;;;;;;;23.00;74.12;99851.69;4995245;28;20213;-65
2023/06/24 03:10:24;;;;;;;10.82;9.13;;;;;;;22.82;75.39;99852.66;4995798;28;20301;-67
2023/06/24 03:12:51;;;;;;;11.48;8.88;;;;;;;22.58;76.19;99848.34;4995816;28;20034;-65
2023/06/24 03:15:16;;;;;;;11.77;8.43;;;;;;;22.54;77.70;99849.88;4994873;28;20071;-65
2023/06/24 03:17:42;;;;;;;14.63;9.13;;;;;;;22.58;79.21;99845.66;4994650;28;20362;-67
2023/06/24 03:20:08;;;;;;;12.07;9.20;;;;;;;22.58;79.09;99845.66;4995447;28;20026;-67
2023/06/24 03:22:34;;;;;;;12.18;9.27;;;;;;;22.60;79.25;99846.22;4995474;28;20089;-65
2023/06/24 03:24:59;;;;;;;14.23;9.88;;;;;;;22.64;78.36;99836.59;4994799;28;20038;-65
2023/06/24 03:27:24;;;;;;;11.60;9.32;;;;;;;22.76;77.71;99847.38;4996543;28;20236;-65
2023/06/24 03:29:50;;;;;;;14.40;10.07;;;;;;;22.81;77.38;99861.81;4995640;28;20053;-67
2023/06/24 03:32:15;;;;;;;12.52;8.32;;;;;;;22.71;77.20;99866.16;4995958;28;20405;-67
2023/06/24 03:34:41;;;;;;;12.45;8.60;;;;;;;22.68;78.73;99864.75;4997538;28;20042;-67
2023/06/24 03:37:06;;;;;;;12.13;9.25;;;;;;;22.66;79.72;99858.78;4995439;28;20038;-65
2023/06/24 03:39:32;;;;;;;10.52;8.68;;;;;;;22.66;79.19;99861.47;4994965;28;20038;-65
2023/06/24 03:41:57;;;;;;;10.68;8.18;;;;;;;22.65;79.53;99853.63;4995013;28;20053;-67
2023/06/24 03:44:23;;;;;;;9.65;8.35;;;;;;;22.70;79.95;99859.13;4995046;28;20397;-65
2023/06/24 03:46:48;;;;;;;11.57;7.88;;;;;;;22.65;79.38;99838.25;4995183;28;20229;-65
2023/06/24 03:49:14;;;;;;;10.95;8.73;;;;;;;22.90;78.43;99854.19;4994376;28;20034;-67
2023/06/24 03:51:39;;;;;;;11.65;8.63;;;;;;;22.91;79.29;99853.97;4995065;28;20064;-67
2023/06/24 03:54:04;;;;;;;10.95;8.27;;;;;;;23.02;80.24;99851.44;4994579;28;20042;-65
2023/06/24 03:56:30;;;;;;;12.75;8.98;;;;;;;22.90;81.14;99846.09;4995518;28;20240;-65
2023/06/24 03:58:55;;;;;;;14.43;9.95;;;;;;;22.70;83.31;99849.16;4995432;28;20038;-67
2023/06/24 04:01:21;;;;;;;11.57;8.35;;;;;;;22.62;83.67;99855.72;4995406;28;20038;-67
2023/06/24 04:03:46;;;;;;;11.23;9.38;;;;;;;22.57;83.66;99855.63;4993680;28;20054;-65
2023/06/24 04:06:12;;;;;;;11.93;8.43;;;;;;;22.53;83.63;99853.63;4994597;28;20046;-65
2023/06/24 04:08:39;;;;;;;10.70;9.35;;;;;;;22.30;84.51;99865.28;4994511;28;20515;-67
2023/06/24 04:11:06;;;;;;;12.60;9.27;;;;;;;22.18;85.92;99854.50;4995074;28;20439;-65
2023/06/24 04:13:32;;;;;;;13.55;9.90;;;;;;;22.21;88.20;99864.00;4994624;28;20401;-65
2023/06/24 04:15:58;;;;;;;13.32;9.98;;;;;;;22.27;88.01;99860.34;4995202;28;20038;-67
2023/06/24 04:18:23;;;;;;;13.13;9.82;;;;;;;22.48;85.68;99862.44;4994502;28;20046;-65
2023/06/24 04:20:49;;;;;;;12.57;9.75;;;;;;;22.58;87.37;99862.66;4994478;28;20046;-67
2023/06/24 04:23:15;;;;;;;13.77;9.90;;;;;;;22.80;83.89;99870.97;4996265;28;20275;-65
2023/06/24 04:25:40;;;;;;;13.57;10.32;;;;;;;22.86;82.87;99874.59;4997505;28;20050;-65
2023/06/24 04:28:06;;;;;;;13.38;10.32;;;;;;;23.00;83.44;99880.59;4998382;28;20054;-67
2023/06/24 04:30:32;;;;;;;13.40;9.93;;;;;;;22.92;81.33;99874.50;4998189;28;20228;-67
2023/06/24 04:32:58;;;;;;;11.85;8.70;;;;;;;22.86;80.83;99880.00;4998533;28;20415;-67
2023/06/24 04:35:24;;;;;;;13.13;9.68;;;;;;;22.78;82.38;99878.47;4998293;28;20145;-67
2023/06/24 04:37:50;;;;;;;9.55;8.55;;;;;;;22.52;82.54;99878.97;4998361;28;20109;-67
2023/06/24 04:40:17;;;;;;;15.02;9.65;;;;;;;22.41;83.60;99869.84;4998880;28;20374;-67
2023/06/24 04:42:42;;;;;;;14.63;9.85;;;;;;;22.39;84.13;99868.44;4998645;28;20045;-67
2023/06/24 04:45:08;;;;;;;10.02;8.57;;;;;;;22.63;83.52;99880.84;4997470;28;20038;-67
2023/06/24 04:47:33;;;;;;;11.43;9.13;;;;;;;22.68;82.43;99880.94;4998144;28;20335;-67
2023/06/24 04:49:59;;;;;;;10.93;8.63;;;;;;;23.01;80.38;99893.84;4997817;28;20038;-66
2023/06/24 04:52:24;;;;;;;13.27;9.50;;;;;;;23.60;77.29;99893.63;4998083;28;20092;-65
2023/06/24 04:54:49;;;;;;;11.52;9.35;;;;;;;23.84;74.04;99887.81;4997406;28;20275;-67
2023/06/24 04:57:30;;;;;;;12.65;9.02;;;;;;;24.00;72.58;99888.94;4998068;28;20274;-67
2023/06/24 04:59:56;;;;;;;12.05;8.63;;;;;;;24.26;70.79;99886.63;4997210;28;20106;-65
2023/06/24 05:02:22;;;;;;;13.25;8.75;;;;;;;24.49;69.95;99892.66;4994216;28;20034;-65
2023/06/24 05:04:47;;;;;;;11.65;8.75;;;;;;;24.59;68.17;99897.41;4997901;28;20034;-66
2023/06/24 05:07:13;;;;;;;10.82;9.10;;;;;;;24.87;68.23;99906.44;4997754;28;20030;-65
2023/06/24 05:09:39;;;;;;;11.65;8.95;;;;;;;24.81;66.55;99900.13;4999770;28;20104;-67
2023/06/24 05:12:05;;;;;;;14.15;8.95;;;;;;;24.82;67.15;99899.06;4999646;28;20085;-67
2023/06/24 05:14:30;;;;;;;11.82;8.60;;;;;;;25.04;65.36;99909.94;4997131;28;20042;-66
2023/06/24 05:16:56;;;;;;;12.50;9.13;;;;;;;25.43;64.56;99911.47;4997956;28;20243;-65
2023/06/24 05:19:21;;;;;;;9.65;8.38;;;;;;;25.50;63.51;99911.28;4999384;28;20038;-67
2023/06/24 05:21:46;;;;;;;10.82;8.20;;;;;;;25.13;64.48;99909.25;4997838;28;20091;-66
2023/06/24 05:24:12;;;;;;;9.55;8.07;;;;;;;25.36;64.12;99908.16;4996825;28;20205;-66
2023/06/24 05:26:37;;;;;;;9.05;7.80;;;;;;;25.30;61.53;99909.16;4997691;28;20042;-67
2023/06/24 05:29:03;;;;;;;10.95;8.27;;;;;;;25.58;60.15;99907.28;4997064;28;20038;-65
2023/06/24 05:31:28;;;;;;;8.75;7.88;;;;;;;25.81;60.27;99904.28;4997519;28;20074;-66
2023/06/24 05:33:54;;;;;;;8.93;7.63;;;;;;;26.07;59.12;99913.47;4996627;28;20046;-65
2023/06/24 05:36:19;;;;;;;10.13;8.00;;;;;;;26.18;60.68;99920.63;4997114;28;20038;-65
2023/06/24 05:38:45;;;;;;;10.75;8.52;;;;;;;26.26;57.42;99913.88;4997378;28;20084;-67
2023/06/24 05:41:10;;;;;;;8.88;7.38;;;;;;;26.43;56.61;99920.00;4997248;28;20045;-65
2023/06/24 05:43:36;;;;;;;10.90;8.32;;;;;;;26.54;55.19;99920.88;4998825;28;20037;-67
2023/06/24 05:46:01;;;;;;;9.85;7.70;;;;;;;26.59;55.00;99920.91;4997665;28;20045;-67
2023/06/24 05:48:27;;;;;;;10.98;8.45;;;;;;;26.91;54.96;99920.81;4997236;28;20224;-68
2023/06/24 05:50:52;;;;;;;12.13;8.40;;;;;;;27.29;53.74;99928.63;4997075;28;20054;-67
2023/06/24 05:53:18;;;;;;;9.85;7.85;;;;;;;27.53;51.94;99920.78;4998497;28;20061;-66
2023/06/24 05:55:44;;;;;;;11.82;8.40;;;;;;;27.43;52.15;99923.47;4997135;28;20651;-67
2023/06/24 05:58:09;;;;;;;12.45;7.60;;;;;;;27.37;51.03;99918.31;4996992;28;20751;-66
2023/06/24 06:00:35;;;;;;;9.50;7.07;;;;;;;27.58;49.78;99918.06;4997171;28;20049;-67
2023/06/24 06:03:00;;;;;;;9.85;6.25;;;;;;;27.29;49.94;99917.75;4996712;28;20038;-66
2023/06/24 06:05:26;;;;;;;7.78;6.47;;;;;;;27.62;48.21;99921.91;4996390;28;20340;-66
2023/06/24 06:07:52;;;;;;;8.38;6.68;;;;;;;27.64;45.68;99924.38;4996736;28;20041;-67
2023/06/24 06:10:18;;;;;;;6.47;5.60;;;;;;;27.97;44.45;99923.03;4995740;28;20273;-66
2023/06/24 06:12:44;;;;;;;10.68;5.95;;;;;;;28.26;43.49;99917.91;4996242;28;20054;-66
2023/06/24 06:15:10;;;;;;;6.88;6.18;;;;;;;28.57;41.75;99914.03;4996273;28;20033;-66
2023/06/24 06:17:35;;;;;;;7.38;5.97;;;;;;;28.80;44.53;99911.78;4996487;28;20050;-66
2023/06/24 06:20:01;;;;;;;8.70;6.93;;;;;;;28.99;43.53;99906.56;4995611;28;20022;-68
2023/06/24 06:22:26;;;;;;;8.30;6.70;;;;;;;29.07;43.59;99903.25;4996522;28;20247;-67
2023/06/24 06:24:51;;;;;;;8.40;7.10;;;;;;;29.09;44.40;99901.06;4995652;28;20042;-66
2023/06/24 06:27:17;;;;;;;10.45;7.45;;;;;;;29.08;45.47;99892.06;4996294;28;20072;-68
2023/06/24 06:29:42;;;;;;;9.07;7.13;;;;;;;29.29;45.93;99883.81;4996211;28;20255;-68
2023/06/24 06:32:08;;;;;;;8.82;7.50;;;;;;;28.95;46.72;99886.41;4996412;28;20050;-67
2023/06/24 06:34:33;;;;;;;10.45;7.88;;;;;;;28.73;47.23;99879.38;4996195;28;20060;-67
2023/06/24 06:36:59;;;;;;;10.60;6.75;;;;;;;28.62;46.80;99877.78;4997043;28;20340;-68
2023/06/24 06:39:24;;;;;;;10.82;7.25;;;;;;;29.09;45.46;99877.34;4996930;28;20035;-66
2023/06/24 06:41:50;;;;;;;9.15;7.18;;;;;;;29.35;43.92;99877.22;4997863;28;20038;-67
2023/06/24 06:44:15;;;;;;;8.48;7.38;;;;;;;29.57;43.98;99877.66;4997421;28;20034;-66
2023/06/24 06:46:40;;;;;;;7.97;7.18;;;;;;;29.91;44.43;99874.91;4995832;28;20075;-66
2023/06/24 06:49:06;;;;;;;8.43;6.90;;;;;;;29.48;44.58;99873.88;4994916;28;20030;-67
2023/06/24 06:51:31;;;;;;;9.18;7.20;;;;;;;28.78;46.42;99882.09;4996661;28;20042;-68
2023/06/24 06:53:57;;;;;;;7.72;6.35;;;;;;;28.97;46.06;99876.84;4996580;28;20038;-67
2023/06/24 06:56:24;;;;;;;8.70;6.75;;;;;;;29.55;44.42;99877.94;4996464;28;20263;-68
2023/06/24 06:58:50;;;;;;;9.85;7.20;;;;;;;29.14;45.08;99879.25;4995233;28;20030;-66
2023/06/24 07:01:15;;;;;;;7.47;6.55;;;;;;;29.02;45.11;99874.09;4995208;28;20038;-66
2023/06/24 07:03:41;;;;;;;8.80;6.20;;;;;;;29.23;42.97;99867.47;4995506;28;20106;-66
2023/06/24 07:06:06;;;;;;;8.75;6.47;;;;;;;29.53;43.51;99863.75;4995942;28;20105;-67
2023/06/24 07:08:32;;;;;;;7.65;6.40;;;;;;;29.66;41.67;99870.47;4996846;28;20034;-66
2023/06/24 07:10:57;;;;;;;7.10;6.30;;;;;;;29.87;43.80;99865.66;4995554;28;20080;-68
2023/06/24 07:13:22;;;;;;;8.55;6.57;;;;;;;29.95;42.25;99856.03;4995241;28;20053;-67
2023/06/24 07:15:48;;;;;;;8.05;5.97;;;;;;;29.96;41.84;99860.41;4995327;28;20041;-67
2023/06/24 07:18:13;;;;;;;8.05;6.57;;;;;;;29.84;40.66;99853.41;4995003;28;20042;-66
2023/06/24 07:20:39;;;;;;;9.23;6.70;;;;;;;29.65;41.77;99855.22;4995534;28;20356;-66
2023/06/24 07:23:04;;;;;;;8.10;6.22;;;;;;;29.94;41.33;99859.88;4996526;28;20355;-67
2023/06/24 07:25:30;;;;;;;7.80;6.60;;;;;;;29.68;42.52;99849.19;4995542;28;20041;-66
2023/06/24 07:27:56;;;;;;;8.10;6.88;;;;;;;30.07;41.93;99857.31;4995247;28;20033;-66
2023/06/24 07:30:21;;;;;;;8.48;6.43;;;;;;;30.14;41.37;99855.06;4994862;28;20105;-66
2023/06/24 07:32:47;;;;;;;8.52;7.38;;;;;;;29.95;40.71;99856.84;4995001;28;20052;-67
2023/06/24 07:35:13;;;;;;;7.22;6.50;;;;;;;29.79;43.24;99852.63;4995149;28;20030;-66
2023/06/24 07:37:38;;;;;;;8.65;6.55;;;;;;;29.93;42.14;99850.88;4995140;28;20355;-67
2023/06/24 07:40:09;;;;;;;8.93;6.93;;;;;;;29.80;41.93;99854.25;4994605;28;20108;-67
2023/06/24 07:42:34;;;;;;;8.65;6.57;;;;;;;29.95;44.75;99862.31;4991135;28;20093;-68
2023/06/24 07:45:00;;;;;;;8.38;6.63;;;;;;;29.72;43.95;99847.50;4994624;28;20026;-66
2023/06/24 07:47:25;;;;;;;8.40;6.95;;;;;;;29.89;43.84;99849.81;4995193;28;20042;-66
2023/06/24 07:49:51;;;;;;;8.95;6.95;;;;;;;30.38;44.37;99857.03;4994035;28;20057;-66
2023/06/24 07:52:16;;;;;;;8.55;7.35;;;;;;;30.39;45.24;99859.47;4995055;28;20042;-68
2023/06/24 07:54:42;;;;;;;9.10;6.93;;;;;;;30.43;43.73;99854.25;4994284;28;20042;-66
2023/06/24 07:57:08;;;;;;;11.30;6.80;;;;;;;29.87;43.61;99869.22;4994595;28;20556;-66
2023/06/24 07:59:33;;;;;;;9.02;7.13;;;;;;;29.99;44.03;99860.66;4994588;28;20046;-67
2023/06/24 08:01:59;;;;;;;8.38;6.93;;;;;;;30.01;44.03;99863.09;4994530;28;20054;-67
2023/06/24 08:04:24;;;;;;;8.30;7.40;;;;;;;30.18;42.75;99853.41;4994119;28;20033;-66
2023/06/24 08:06:50;;;;;;;11.30;7.00;;;;;;;30.42;42.95;99858.09;4994805;28;20108;-68
2023/06/24 08:09:16;;;;;;;10.27;7.68;;;;;;;30.42;42.24;99856.16;4994720;28;20402;-67
2023/06/24 08:11:41;;;;;;;8.07;7.25;;;;;;;30.58;42.41;99850.53;4993871;28;20287;-68
2023/06/24 08:14:07;;;;;;;8.27;6.70;;;;;;;31.00;40.90;99855.22;4994233;28;20034;-68
2023/06/24 08:16:32;;;;;;;7.40;6.65;;;;;;;30.97;39.81;99853.88;4994411;28;20192;-67
2023/06/24 08:18:58;;;;;;;7.53;6.70;;;;;;;31.26;39.47;99853.00;4995063;28;20275;-65
2023/06/24 08:21:23;;;;;;;8.35;6.60;;;;;;;31.07;39.24;99856.47;4994306;28;20424;-66
2023/06/24 08:23:50;;;;;;;8.85;6.80;;;;;;;31.12;38.95;99859.13;4994160;28;20040;-66
2023/06/24 08:26:15;;;;;;;9.55;6.50;;;;;;;31.37;40.31;99857.19;4993602;28;20267;-66
2023/06/24 08:28:41;;;;;;;7.22;6.32;;;;;;;31.01;40.47;99854.91;4994392;28;20069;-66
2023/06/24 08:31:06;;;;;;;8.27;6.65;;;;;;;30.99;39.52;99857.13;4994400;28;20038;-67
2023/06/24 08:33:32;;;;;;;8.05;6.20;;;;;;;31.07;40.48;99848.25;4994543;28;20026;-68
2023/06/24 08:35:57;;;;;;;8.82;6.80;;;;;;;31.39;41.03;99857.72;4994558;28;20031;-68
2023/06/24 08:38:23;;;;;;;8.57;7.10;;;;;;;31.34;40.79;99857.78;4994714;28;20419;-68
2023/06/24 08:40:49;;;;;;;7.10;6.40;;;;;;;31.51;40.42;99846.31;4993752;28;20045;-66
2023/06/24 08:43:14;;;;;;;8.57;6.95;;;;;;;31.63;39.47;99842.00;4993770;28;20069;-66
2023/06/24 08:45:40;;;;;;;8.55;7.10;;;;;;;31.50;40.76;99850.97;4994048;28;20046;-66
2023/06/24 08:48:06;;;;;;;7.85;7.05;;;;;;;31.55;40.92;99848.16;4995493;28;20049;-67
2023/06/24 08:50:36;;;;;;;8.43;7.57;;;;;;;31.49;42.69;99841.13;4995674;28;20129;-66
2023/06/24 08:53:07;;;;;;;11.20;7.85;;;;;;;31.63;42.56;99832.97;4993853;28;20360;-66
2023/06/24 08:55:36;;;;;;;8.90;7.03;;;;;;;31.78;41.37;99845.63;4994087;28;22064;-67
2023/06/24 08:58:02;;;;;;;7.47;6.75;;;;;;;31.74;40.54;99835.28;4994863;28;20034;-66
2023/06/24 09:00:28;;;;;;;8.52;7.57;;;;;;;31.89;40.02;99841.59;4993344;28;20042;-66
2023/06/24 09:02:54;;;;;;;8.32;7.45;;;;;;;32.09;39.92;99838.50;4993972;28;20106;-68
2023/06/24 09:05:19;;;;;;;8.38;7.57;;;;;;;32.20;40.06;99836.38;4993859;28;20041;-67
2023/06/24 09:07:45;;;;;;;8.02;7.22;;;;;;;32.19;40.36;99840.22;4995786;28;20064;-68
2023/06/24 09:10:28;;;;;;;8.90;7.10;;;;;;;31.84;42.63;99842.50;4996289;28;20059;-66
2023/06/24 09:12:54;;;;;;;9.20;7.57;;;;;;;31.34;43.50;99836.72;4994075;28;20391;-68
2023/06/24 09:15:20;;;;;;;9.45;7.88;;;;;;;31.28;43.32;99835.16;4998168;28;20447;-67
2023/06/24 09:17:48;;;;;;;7.93;7.00;;;;;;;31.57;43.68;99829.50;4998389;28;20095;-68
2023/06/24 09:20:14;;;;;;;8.07;7.28;;;;;;;31.92;43.53;99822.63;4997055;28;20088;-66
2023/06/24 09:22:42;;;;;;;8.55;7.75;;;;;;;32.12;43.10;99820.63;4997576;28;20036;-68
2023/06/24 09:25:07;;;;;;;9.48;7.68;;;;;;;32.20;42.42;99817.19;4996510;28;20267;-68
2023/06/24 09:27:33;;;;;;;11.13;7.30;;;;;;;31.77;42.97;99828.38;4997244;28;20034;-67
2023/06/24 09:29:58;;;;;;;8.05;7.30;;;;;;;31.06;45.22;99832.16;4997462;28;20044;-67
2023/06/24 09:32:31;;;;;;;8.57;7.78;;;;;;;30.84;44.10;99810.84;4997394;28;20054;-66
2023/06/24 09:34:57;;;;;;;8.70;7.80;;;;;;;31.04;44.24;99815.22;4997491;28;20114;-68
2023/06/24 09:37:30;;;;;;;8.15;7.35;;;;;;;31.10;47.63;99814.84;4998808;28;20119;-66
2023/06/24 09:39:56;;;;;;;8.73;7.43;;;;;;;30.70;44.74;99813.50;4997264;28;20129;-66
2023/06/24 09:42:25;;;;;;;7.90;6.57;;;;;;;30.41;43.87;99804.53;4997463;28;20049;-66
2023/06/24 09:44:54;;;;;;;7.82;6.93;;;;;;;30.76;46.72;99806.03;4997203;28;20356;-66
2023/06/24 09:47:20;;;;;;;8.60;7.03;;;;;;;30.58;45.58;99807.63;4999152;28;20049;-66
2023/06/24 09:49:45;;;;;;;8.52;6.90;;;;;;;30.25;44.87;99792.16;4997503;28;20034;-66
2023/06/24 09:52:15;;;;;;;8.15;6.93;;;;;;;29.97;46.39;99778.22;4997256;28;20042;-67
2023/06/24 09:54:42;;;;;;;8.57;6.93;;;;;;;30.10;48.00;99779.47;4996425;28;20124;-66
2023/06/24 09:57:09;;;;;;;7.82;7.03;;;;;;;30.24;47.35;99763.22;4997637;28;20057;-66
2023/06/24 09:59:36;;;;;;;8.77;6.78;;;;;;;30.32;47.67;99763.41;4998465;28;20038;-66
2023/06/24 10:02:04;;;;;;;11.32;7.00;;;;;;;30.22;48.29;99751.78;4997410;28;20040;-66
2023/06/24 10:04:31;;;;;;;7.30;6.60;;;;;;;30.30;47.90;99748.41;4996792;28;20216;-67
2023/06/24 10:06:58;;;;;;;7.40;6.18;;;;;;;30.35;51.20;99751.06;4995685;28;20058;-66
2023/06/24 10:09:23;;;;;;;7.68;6.70;;;;;;;30.35;47.12;99754.63;4996185;28;20320;-66
2023/06/24 10:11:48;;;;;;;8.57;7.00;;;;;;;30.16;46.92;99748.28;4996679;28;20076;-66
2023/06/24 10:14:14;;;;;;;9.23;6.97;;;;;;;30.27;46.61;99740.78;4996733;28;20048;-65
2023/06/24 10:16:41;;;;;;;7.35;6.55;;;;;;;30.35;47.12;99740.16;4996436;28;20386;-68
2023/06/24 10:19:06;;;;;;;7.18;6.43;;;;;;;30.32;46.81;99738.00;4996541;28;20045;-66
2023/06/24 10:22:09;;;;;;;8.25;6.75;;;;;;;30.23;46.54;99735.09;4995413;28;20034;-66
2023/06/24 10:24:39;;;;;;;7.70;6.93;;;;;;;30.21;47.77;99733.78;4956586;29;20150;-66
2023/06/24 10:27:13;;;;;;;7.13;6.40;;;;;;;30.18;48.70;99743.38;4989760;28;20205;-67
2023/06/24 10:29:39;;;;;;;7.82;7.13;;;;;;;30.21;47.65;99731.03;4996217;28;20034;-66
2023/06/24 10:32:08;;;;;;;8.43;6.95;;;;;;;30.32;48.02;99725.16;4995411;28;20053;-66
2023/06/24 10:34:37;;;;;;;9.60;6.68;;;;;;;30.41;49.35;99730.78;4995698;28;20061;-67
2023/06/24 10:37:07;;;;;;;8.82;7.00;;;;;;;30.48;46.65;99725.78;4996511;28;20062;-66
2023/06/24 10:39:47;;;;;;;8.25;6.60;;;;;;;30.41;46.21;99734.31;4995829;28;20061;-67
2023/06/24 10:42:36;;;;;;;8.52;6.90;;;;;;;30.55;48.96;99723.50;4995729;28;21562;-68
2023/06/24 10:45:08;;;;;;;7.43;6.63;;;;;;;30.71;47.18;99718.66;4995140;28;20386;-66
2023/06/24 10:47:34;;;;;;;8.13;7.30;;;;;;;30.54;45.81;99713.66;4995605;28;20145;-67
2023/06/24 10:49:59;;;;;;;8.00;6.78;;;;;;;30.67;48.80;99723.06;4997775;28;20038;-68
2023/06/24 10:52:25;;;;;;;10.32;7.72;;;;;;;30.67;47.59;99707.50;4996594;28;20054;-68
2023/06/24 10:54:52;;;;;;;8.07;7.28;;;;;;;30.69;49.38;99712.66;4995371;28;20061;-66
2023/06/24 10:57:25;;;;;;;8.35;7.50;;;;;;;30.71;50.53;99708.53;4995803;28;20103;-66
2023/06/24 10:59:53;;;;;;;8.73;7.57;;;;;;;30.66;46.47;99697.66;4978262;28;20034;-67
2023/06/24 11:02:23;;;;;;;9.68;7.55;;;;;;;30.84;46.45;99692.50;4977808;28;20065;-68
2023/06/24 11:04:58;;;;;;;8.32;7.53;;;;;;;30.86;46.55;99682.06;4995687;28;20034;-67
2023/06/24 11:07:25;;;;;;;8.00;7.10;;;;;;;30.86;46.81;99680.16;4992673;28;20069;-66
2023/06/24 11:09:55;;;;;;;7.82;6.93;;;;;;;30.74;49.76;99674.31;4995725;28;20042;-65
2023/06/24 11:12:40;;;;;;;8.50;7.65;;;;;;;30.76;49.44;99675.66;4996316;28;20046;-66
2023/06/24 11:15:12;;;;;;;8.27;7.47;;;;;;;30.81;48.15;99659.16;4996096;28;20053;-66
2023/06/24 11:17:39;;;;;;;8.85;7.95;;;;;;;30.68;49.45;99667.31;4992368;28;20338;-66
2023/06/24 11:20:10;;;;;;;7.93;7.13;;;;;;;30.74;46.10;99652.47;4996106;28;20213;-67
2023/06/24 11:22:36;;;;;;;8.50;7.57;;;;;;;30.88;48.47;99655.25;4995852;28;20034;-67
2023/06/24 11:25:01;;;;;;;8.57;7.60;;;;;;;30.90;50.13;99645.63;4994840;28;20343;-66
2023/06/24 11:27:28;;;;;;;9.45;7.82;;;;;;;31.00;46.49;99625.50;4996025;28;20060;-67
2023/06/24 11:29:55;;;;;;;8.27;7.15;;;;;;;31.00;46.83;99623.59;4996076;28;20096;-66